sensor_id;sensor_type;location;lat;lon;timestamp;temperature;humidity
48575;DHT22;34352;51.084;3.712;2024-01-30T00:02:00;11.70;27.10
48575;DHT22;34352;51.084;3.712;2024-01-30T00:04:32;11.70;27.60
48575;DHT22;34352;51.084;3.712;2024-01-30T00:07:04;11.60;27.90
48575;DHT22;34352;51.084;3.712;2024-01-30T00:09:33;11.60;28.60
48575;DHT22;34352;51.084;3.712;2024-01-30T00:12:13;11.60;28.20
48575;DHT22;34352;51.084;3.712;2024-01-30T00:14:58;11.60;28.90
48575;DHT22;34352;51.084;3.712;2024-01-30T00:20:44;11.70;28.30
48575;DHT22;34352;51.084;3.712;2024-01-30T00:23:11;11.60;29.70
48575;DHT22;34352;51.084;3.712;2024-01-30T00:25:53;11.60;32.10
48575;DHT22;34352;51.084;3.712;2024-01-30T00:28:35;11.60;33.00
48575;DHT22;34352;51.084;3.712;2024-01-30T00:31:05;11.60;31.80
48575;DHT22;34352;51.084;3.712;2024-01-30T00:33:30;11.60;30.50
48575;DHT22;34352;51.084;3.712;2024-01-30T00:35:56;11.60;29.90
48575;DHT22;34352;51.084;3.712;2024-01-30T00:38:37;11.70;29.10
48575;DHT22;34352;51.084;3.712;2024-01-30T00:41:10;11.70;30.20
48575;DHT22;34352;51.084;3.712;2024-01-30T00:43:39;11.70;30.00
48575;DHT22;34352;51.084;3.712;2024-01-30T00:46:10;11.70;28.40
48575;DHT22;34352;51.084;3.712;2024-01-30T00:48:48;11.70;29.10
48575;DHT22;34352;51.084;3.712;2024-01-30T00:51:20;11.70;29.70
48575;DHT22;34352;51.084;3.712;2024-01-30T00:53:47;11.70;29.40
48575;DHT22;34352;51.084;3.712;2024-01-30T00:56:19;11.70;30.20
48575;DHT22;34352;51.084;3.712;2024-01-30T00:58:48;11.70;31.00
48575;DHT22;34352;51.084;3.712;2024-01-30T01:01:14;11.60;32.20
48575;DHT22;34352;51.084;3.712;2024-01-30T01:04:04;11.70;30.50
48575;DHT22;34352;51.084;3.712;2024-01-30T01:06:32;11.70;30.10
48575;DHT22;34352;51.084;3.712;2024-01-30T01:09:14;11.60;30.40
48575;DHT22;34352;51.084;3.712;2024-01-30T01:11:54;11.60;33.50
48575;DHT22;34352;51.084;3.712;2024-01-30T01:14:22;11.60;34.40
48575;DHT22;34352;51.084;3.712;2024-01-30T01:16:52;11.60;35.10
48575;DHT22;34352;51.084;3.712;2024-01-30T01:19:18;11.60;35.00
48575;DHT22;34352;51.084;3.712;2024-01-30T01:21:47;11.70;33.80
48575;DHT22;34352;51.084;3.712;2024-01-30T01:24:19;11.70;32.50
48575;DHT22;34352;51.084;3.712;2024-01-30T01:26:47;11.70;32.60
48575;DHT22;34352;51.084;3.712;2024-01-30T01:29:12;11.60;33.20
48575;DHT22;34352;51.084;3.712;2024-01-30T01:31:38;11.60;34.90
48575;DHT22;34352;51.084;3.712;2024-01-30T01:34:42;11.50;36.40
48575;DHT22;34352;51.084;3.712;2024-01-30T01:37:10;11.50;37.90
48575;DHT22;34352;51.084;3.712;2024-01-30T01:39:37;11.60;36.80
48575;DHT22;34352;51.084;3.712;2024-01-30T01:42:14;11.40;39.90
48575;DHT22;34352;51.084;3.712;2024-01-30T01:44:52;11.40;41.00
48575;DHT22;34352;51.084;3.712;2024-01-30T01:47:42;11.40;43.40
48575;DHT22;34352;51.084;3.712;2024-01-30T01:50:08;11.40;43.00
48575;DHT22;34352;51.084;3.712;2024-01-30T01:52:41;11.50;41.00
48575;DHT22;34352;51.084;3.712;2024-01-30T01:55:16;11.50;42.80
48575;DHT22;34352;51.084;3.712;2024-01-30T01:57:53;11.40;42.50
48575;DHT22;34352;51.084;3.712;2024-01-30T02:00:29;11.50;41.30
48575;DHT22;34352;51.084;3.712;2024-01-30T02:02:59;11.50;40.30
48575;DHT22;34352;51.084;3.712;2024-01-30T02:05:40;11.60;41.30
48575;DHT22;34352;51.084;3.712;2024-01-30T02:08:20;11.60;40.20
48575;DHT22;34352;51.084;3.712;2024-01-30T02:10:49;11.60;40.70
48575;DHT22;34352;51.084;3.712;2024-01-30T02:13:21;11.60;39.80
48575;DHT22;34352;51.084;3.712;2024-01-30T02:15:59;11.60;39.20
48575;DHT22;34352;51.084;3.712;2024-01-30T02:18:27;11.60;40.10
48575;DHT22;34352;51.084;3.712;2024-01-30T02:20:57;11.60;39.60
48575;DHT22;34352;51.084;3.712;2024-01-30T02:23:56;11.60;38.80
48575;DHT22;34352;51.084;3.712;2024-01-30T02:26:32;11.70;38.30
48575;DHT22;34352;51.084;3.712;2024-01-30T02:28:58;11.70;35.90
48575;DHT22;34352;51.084;3.712;2024-01-30T02:31:26;11.70;36.60
48575;DHT22;34352;51.084;3.712;2024-01-30T02:34:13;11.60;40.00
48575;DHT22;34352;51.084;3.712;2024-01-30T02:36:47;11.60;41.90
48575;DHT22;34352;51.084;3.712;2024-01-30T02:39:17;11.60;41.90
48575;DHT22;34352;51.084;3.712;2024-01-30T02:41:43;11.60;42.20
48575;DHT22;34352;51.084;3.712;2024-01-30T02:44:11;11.60;43.10
48575;DHT22;34352;51.084;3.712;2024-01-30T02:46:42;11.60;42.80
48575;DHT22;34352;51.084;3.712;2024-01-30T02:49:09;11.60;42.60
48575;DHT22;34352;51.084;3.712;2024-01-30T02:51:35;11.70;43.00
48575;DHT22;34352;51.084;3.712;2024-01-30T02:54:04;11.60;42.70
48575;DHT22;34352;51.084;3.712;2024-01-30T02:56:33;11.60;46.30
48575;DHT22;34352;51.084;3.712;2024-01-30T02:58:59;11.60;47.20
48575;DHT22;34352;51.084;3.712;2024-01-30T03:01:25;11.60;46.50
48575;DHT22;34352;51.084;3.712;2024-01-30T03:03:50;11.60;46.60
48575;DHT22;34352;51.084;3.712;2024-01-30T03:06:17;11.60;45.20
48575;DHT22;34352;51.084;3.712;2024-01-30T03:08:49;11.60;46.30
48575;DHT22;34352;51.084;3.712;2024-01-30T03:11:28;11.60;47.50
48575;DHT22;34352;51.084;3.712;2024-01-30T03:14:04;11.70;46.90
48575;DHT22;34352;51.084;3.712;2024-01-30T03:16:30;11.60;44.60
48575;DHT22;34352;51.084;3.712;2024-01-30T03:18:56;11.60;44.60
48575;DHT22;34352;51.084;3.712;2024-01-30T03:21:21;11.60;47.20
48575;DHT22;34352;51.084;3.712;2024-01-30T03:23:50;11.60;48.10
48575;DHT22;34352;51.084;3.712;2024-01-30T03:26:28;11.60;47.90
48575;DHT22;34352;51.084;3.712;2024-01-30T03:32:26;11.60;48.30
48575;DHT22;34352;51.084;3.712;2024-01-30T03:34:57;11.60;49.10
48575;DHT22;34352;51.084;3.712;2024-01-30T03:37:42;11.60;49.60
48575;DHT22;34352;51.084;3.712;2024-01-30T03:40:30;11.50;50.30
48575;DHT22;34352;51.084;3.712;2024-01-30T03:42:55;11.50;51.90
48575;DHT22;34352;51.084;3.712;2024-01-30T03:45:21;11.50;51.20
48575;DHT22;34352;51.084;3.712;2024-01-30T03:48:20;11.40;53.30
48575;DHT22;34352;51.084;3.712;2024-01-30T03:51:14;11.40;55.40
48575;DHT22;34352;51.084;3.712;2024-01-30T03:53:59;11.40;54.00
48575;DHT22;34352;51.084;3.712;2024-01-30T03:56:28;11.40;54.30
48575;DHT22;34352;51.084;3.712;2024-01-30T03:58:55;11.30;55.00
48575;DHT22;34352;51.084;3.712;2024-01-30T04:01:27;11.20;58.00
48575;DHT22;34352;51.084;3.712;2024-01-30T04:03:58;11.20;59.50
48575;DHT22;34352;51.084;3.712;2024-01-30T04:06:27;11.30;59.20
48575;DHT22;34352;51.084;3.712;2024-01-30T04:08:55;11.30;58.10
48575;DHT22;34352;51.084;3.712;2024-01-30T04:11:23;11.20;58.80
48575;DHT22;34352;51.084;3.712;2024-01-30T04:13:50;11.30;57.40
48575;DHT22;34352;51.084;3.712;2024-01-30T04:16:20;11.30;56.70
48575;DHT22;34352;51.084;3.712;2024-01-30T04:22:08;11.30;57.50
48575;DHT22;34352;51.084;3.712;2024-01-30T04:25:11;11.20;57.80
48575;DHT22;34352;51.084;3.712;2024-01-30T04:27:38;11.30;58.60
48575;DHT22;34352;51.084;3.712;2024-01-30T04:30:09;11.30;57.30
48575;DHT22;34352;51.084;3.712;2024-01-30T04:32:49;11.30;56.70
48575;DHT22;34352;51.084;3.712;2024-01-30T04:35:30;11.40;56.60
48575;DHT22;34352;51.084;3.712;2024-01-30T04:38:06;11.30;56.80
48575;DHT22;34352;51.084;3.712;2024-01-30T04:40:46;11.30;57.00
48575;DHT22;34352;51.084;3.712;2024-01-30T04:43:25;11.30;56.90
48575;DHT22;34352;51.084;3.712;2024-01-30T04:45:52;11.40;54.10
48575;DHT22;34352;51.084;3.712;2024-01-30T04:48:38;11.40;55.10
48575;DHT22;34352;51.084;3.712;2024-01-30T04:51:06;11.30;56.60
48575;DHT22;34352;51.084;3.712;2024-01-30T04:53:36;11.40;55.60
48575;DHT22;34352;51.084;3.712;2024-01-30T04:56:01;11.40;55.80
48575;DHT22;34352;51.084;3.712;2024-01-30T04:58:27;11.40;53.00
48575;DHT22;34352;51.084;3.712;2024-01-30T05:01:17;11.50;54.00
48575;DHT22;34352;51.084;3.712;2024-01-30T05:03:51;11.40;54.40
48575;DHT22;34352;51.084;3.712;2024-01-30T05:06:28;11.40;53.80
48575;DHT22;34352;51.084;3.712;2024-01-30T05:09:04;11.40;53.20
48575;DHT22;34352;51.084;3.712;2024-01-30T05:11:30;11.40;53.70
48575;DHT22;34352;51.084;3.712;2024-01-30T05:13:56;11.40;53.30
48575;DHT22;34352;51.084;3.712;2024-01-30T05:16:26;11.50;52.20
48575;DHT22;34352;51.084;3.712;2024-01-30T05:18:56;11.50;53.60
48575;DHT22;34352;51.084;3.712;2024-01-30T05:21:31;11.40;53.10
48575;DHT22;34352;51.084;3.712;2024-01-30T05:24:05;11.40;53.30
48575;DHT22;34352;51.084;3.712;2024-01-30T05:26:31;11.50;53.30
48575;DHT22;34352;51.084;3.712;2024-01-30T05:28:59;11.40;53.10
48575;DHT22;34352;51.084;3.712;2024-01-30T05:34:39;11.50;53.20
48575;DHT22;34352;51.084;3.712;2024-01-30T05:37:07;11.50;53.00
48575;DHT22;34352;51.084;3.712;2024-01-30T05:43:02;11.40;56.10
48575;DHT22;34352;51.084;3.712;2024-01-30T05:45:28;11.30;57.50
48575;DHT22;34352;51.084;3.712;2024-01-30T05:47:55;11.40;57.80
48575;DHT22;34352;51.084;3.712;2024-01-30T05:50:25;11.40;57.90
48575;DHT22;34352;51.084;3.712;2024-01-30T05:56:07;11.40;57.40
48575;DHT22;34352;51.084;3.712;2024-01-30T05:58:33;11.40;55.70
48575;DHT22;34352;51.084;3.712;2024-01-30T06:01:19;11.50;54.50
48575;DHT22;34352;51.084;3.712;2024-01-30T06:03:59;11.50;55.70
48575;DHT22;34352;51.084;3.712;2024-01-30T06:06:29;11.40;55.40
48575;DHT22;34352;51.084;3.712;2024-01-30T06:09:11;11.40;55.90
48575;DHT22;34352;51.084;3.712;2024-01-30T06:11:38;11.50;55.70
48575;DHT22;34352;51.084;3.712;2024-01-30T06:14:04;11.50;54.30
48575;DHT22;34352;51.084;3.712;2024-01-30T06:16:35;11.50;54.70
48575;DHT22;34352;51.084;3.712;2024-01-30T06:19:27;11.40;55.60
48575;DHT22;34352;51.084;3.712;2024-01-30T06:21:59;11.50;56.50
48575;DHT22;34352;51.084;3.712;2024-01-30T06:27:00;11.60;53.70
48575;DHT22;34352;51.084;3.712;2024-01-30T06:29:28;11.50;53.30
48575;DHT22;34352;51.084;3.712;2024-01-30T06:31:54;11.50;53.70
48575;DHT22;34352;51.084;3.712;2024-01-30T06:34:32;11.50;53.90
48575;DHT22;34352;51.084;3.712;2024-01-30T06:36:58;11.60;53.40
48575;DHT22;34352;51.084;3.712;2024-01-30T06:39:28;11.60;52.80
48575;DHT22;34352;51.084;3.712;2024-01-30T06:41:55;11.60;52.70
48575;DHT22;34352;51.084;3.712;2024-01-30T06:44:38;11.60;54.60
48575;DHT22;34352;51.084;3.712;2024-01-30T06:47:21;11.50;54.70
48575;DHT22;34352;51.084;3.712;2024-01-30T06:50:10;11.60;53.80
48575;DHT22;34352;51.084;3.712;2024-01-30T06:52:40;11.60;53.00
48575;DHT22;34352;51.084;3.712;2024-01-30T06:55:08;11.60;54.30
48575;DHT22;34352;51.084;3.712;2024-01-30T06:57:36;11.70;54.00
48575;DHT22;34352;51.084;3.712;2024-01-30T07:00:02;11.70;53.10
48575;DHT22;34352;51.084;3.712;2024-01-30T07:02:41;11.70;52.90
48575;DHT22;34352;51.084;3.712;2024-01-30T07:05:09;11.70;53.30
48575;DHT22;34352;51.084;3.712;2024-01-30T07:07:35;11.70;52.90
48575;DHT22;34352;51.084;3.712;2024-01-30T07:10:01;11.70;53.70
48575;DHT22;34352;51.084;3.712;2024-01-30T07:12:26;11.80;54.70
48575;DHT22;34352;51.084;3.712;2024-01-30T07:14:53;11.70;55.40
48575;DHT22;34352;51.084;3.712;2024-01-30T07:17:22;11.70;56.10
48575;DHT22;34352;51.084;3.712;2024-01-30T07:19:49;11.70;56.80
48575;DHT22;34352;51.084;3.712;2024-01-30T07:22:23;11.70;56.00
48575;DHT22;34352;51.084;3.712;2024-01-30T07:24:48;11.80;56.40
48575;DHT22;34352;51.084;3.712;2024-01-30T07:27:15;11.80;56.10
48575;DHT22;34352;51.084;3.712;2024-01-30T07:29:44;11.80;56.30
48575;DHT22;34352;51.084;3.712;2024-01-30T07:32:10;11.70;57.60
48575;DHT22;34352;51.084;3.712;2024-01-30T07:34:38;11.80;57.90
48575;DHT22;34352;51.084;3.712;2024-01-30T07:37:06;11.70;60.20
48575;DHT22;34352;51.084;3.712;2024-01-30T07:39:41;11.70;60.90
48575;DHT22;34352;51.084;3.712;2024-01-30T07:42:15;11.80;58.00
48575;DHT22;34352;51.084;3.712;2024-01-30T07:44:42;11.80;58.90
48575;DHT22;34352;51.084;3.712;2024-01-30T07:47:08;11.80;58.50
48575;DHT22;34352;51.084;3.712;2024-01-30T07:49:34;11.80;59.30
48575;DHT22;34352;51.084;3.712;2024-01-30T07:52:01;11.80;59.60
48575;DHT22;34352;51.084;3.712;2024-01-30T07:54:32;11.80;61.50
48575;DHT22;34352;51.084;3.712;2024-01-30T07:57:00;11.90;60.70
48575;DHT22;34352;51.084;3.712;2024-01-30T07:59:27;11.90;59.70
48575;DHT22;34352;51.084;3.712;2024-01-30T08:01:52;11.90;60.20
48575;DHT22;34352;51.084;3.712;2024-01-30T08:04:18;11.90;59.90
48575;DHT22;34352;51.084;3.712;2024-01-30T08:06:44;11.90;60.40
48575;DHT22;34352;51.084;3.712;2024-01-30T08:09:10;11.90;63.00
48575;DHT22;34352;51.084;3.712;2024-01-30T08:11:36;11.90;63.20
48575;DHT22;34352;51.084;3.712;2024-01-30T08:17:23;11.90;61.90
48575;DHT22;34352;51.084;3.712;2024-01-30T08:19:56;11.80;65.90
48575;DHT22;34352;51.084;3.712;2024-01-30T08:22:48;11.80;66.70
48575;DHT22;34352;51.084;3.712;2024-01-30T08:25:16;11.80;68.40
48575;DHT22;34352;51.084;3.712;2024-01-30T08:27:53;11.70;67.60
48575;DHT22;34352;51.084;3.712;2024-01-30T08:30:21;11.70;69.20
48575;DHT22;34352;51.084;3.712;2024-01-30T08:32:46;11.70;70.00
48575;DHT22;34352;51.084;3.712;2024-01-30T08:35:19;11.60;71.20
48575;DHT22;34352;51.084;3.712;2024-01-30T08:37:46;11.60;71.90
48575;DHT22;34352;51.084;3.712;2024-01-30T08:40:12;11.70;71.40
48575;DHT22;34352;51.084;3.712;2024-01-30T08:42:38;11.70;70.80
48575;DHT22;34352;51.084;3.712;2024-01-30T08:45:10;11.70;70.30
48575;DHT22;34352;51.084;3.712;2024-01-30T08:47:35;11.80;70.50
48575;DHT22;34352;51.084;3.712;2024-01-30T08:50:04;11.80;68.40
48575;DHT22;34352;51.084;3.712;2024-01-30T08:52:30;11.70;70.90
48575;DHT22;34352;51.084;3.712;2024-01-30T08:54:58;11.60;72.20
48575;DHT22;34352;51.084;3.712;2024-01-30T08:57:25;11.60;72.20
48575;DHT22;34352;51.084;3.712;2024-01-30T08:59:57;11.60;72.80
48575;DHT22;34352;51.084;3.712;2024-01-30T09:02:35;11.60;75.40
48575;DHT22;34352;51.084;3.712;2024-01-30T09:05:02;11.60;76.60
48575;DHT22;34352;51.084;3.712;2024-01-30T09:11:09;11.60;75.40
48575;DHT22;34352;51.084;3.712;2024-01-30T09:13:39;11.60;76.80
48575;DHT22;34352;51.084;3.712;2024-01-30T09:16:26;11.40;78.60
48575;DHT22;34352;51.084;3.712;2024-01-30T09:18:57;11.40;80.60
48575;DHT22;34352;51.084;3.712;2024-01-30T09:21:24;11.50;79.70
48575;DHT22;34352;51.084;3.712;2024-01-30T09:23:51;11.60;76.60
48575;DHT22;34352;51.084;3.712;2024-01-30T09:26:18;11.50;72.40
48575;DHT22;34352;51.084;3.712;2024-01-30T09:32:40;11.20;71.40
48575;DHT22;34352;51.084;3.712;2024-01-30T09:35:15;11.30;69.80
48575;DHT22;34352;51.084;3.712;2024-01-30T09:41:09;11.30;49.00
48575;DHT22;34352;51.084;3.712;2024-01-30T09:43:38;11.30;45.20
48575;DHT22;34352;51.084;3.712;2024-01-30T09:46:12;11.50;34.30
48575;DHT22;34352;51.084;3.712;2024-01-30T09:52:06;11.40;19.40
48575;DHT22;34352;51.084;3.712;2024-01-30T09:54:40;11.10;27.00
48575;DHT22;34352;51.084;3.712;2024-01-30T09:57:07;11.10;29.70
48575;DHT22;34352;51.084;3.712;2024-01-30T09:59:41;11.00;29.50
48575;DHT22;34352;51.084;3.712;2024-01-30T10:02:18;10.80;29.30
48575;DHT22;34352;51.084;3.712;2024-01-30T10:04:56;10.60;35.90
48575;DHT22;34352;51.084;3.712;2024-01-30T10:07:32;10.50;33.90
48575;DHT22;34352;51.084;3.712;2024-01-30T10:10:10;10.20;40.50
48575;DHT22;34352;51.084;3.712;2024-01-30T10:15:47;10.60;34.50
48575;DHT22;34352;51.084;3.712;2024-01-30T10:18:13;10.60;35.10
48575;DHT22;34352;51.084;3.712;2024-01-30T10:20:38;10.60;33.90
48575;DHT22;34352;51.084;3.712;2024-01-30T10:23:18;10.60;34.40
48575;DHT22;34352;51.084;3.712;2024-01-30T10:25:59;10.60;40.20
48575;DHT22;34352;51.084;3.712;2024-01-30T10:28:33;10.50;45.30
48575;DHT22;34352;51.084;3.712;2024-01-30T10:31:09;10.50;51.80
48575;DHT22;34352;51.084;3.712;2024-01-30T10:33:47;10.40;56.00
48575;DHT22;34352;51.084;3.712;2024-01-30T10:36:14;10.50;52.10
48575;DHT22;34352;51.084;3.712;2024-01-30T10:39:04;10.50;53.50
48575;DHT22;34352;51.084;3.712;2024-01-30T10:41:59;10.50;53.70
48575;DHT22;34352;51.084;3.712;2024-01-30T10:45:08;10.50;54.00
48575;DHT22;34352;51.084;3.712;2024-01-30T10:47:56;10.60;50.00
48575;DHT22;34352;51.084;3.712;2024-01-30T10:50:29;10.50;49.00
48575;DHT22;34352;51.084;3.712;2024-01-30T10:53:04;10.50;45.30
48575;DHT22;34352;51.084;3.712;2024-01-30T10:55:31;10.60;43.80
48575;DHT22;34352;51.084;3.712;2024-01-30T10:58:08;10.80;36.00
48575;DHT22;34352;51.084;3.712;2024-01-30T11:00:39;11.00;25.90
48575;DHT22;34352;51.084;3.712;2024-01-30T11:03:26;11.20;12.40
48575;DHT22;34352;51.084;3.712;2024-01-30T11:05:53;11.10;4.00
48575;DHT22;34352;51.084;3.712;2024-01-30T11:08:28;11.00;6.50
48575;DHT22;34352;51.084;3.712;2024-01-30T11:11:00;10.90;11.30
48575;DHT22;34352;51.084;3.712;2024-01-30T11:13:42;10.90;11.40
48575;DHT22;34352;51.084;3.712;2024-01-30T11:16:45;10.80;13.90
48575;DHT22;34352;51.084;3.712;2024-01-30T11:19:50;10.80;12.80
48575;DHT22;34352;51.084;3.712;2024-01-30T11:22:41;10.80;14.90
48575;DHT22;34352;51.084;3.712;2024-01-30T11:25:15;10.80;12.30
48575;DHT22;34352;51.084;3.712;2024-01-30T11:31:26;10.80;10.40
48575;DHT22;34352;51.084;3.712;2024-01-30T11:34:24;10.90;12.40
48575;DHT22;34352;51.084;3.712;2024-01-30T11:37:01;10.80;9.70
48575;DHT22;34352;51.084;3.712;2024-01-30T11:39:32;10.80;12.50
48575;DHT22;34352;51.084;3.712;2024-01-30T11:42:33;10.70;11.40
48575;DHT22;34352;51.084;3.712;2024-01-30T11:45:02;10.70;12.90
48575;DHT22;34352;51.084;3.712;2024-01-30T11:47:30;10.70;14.00
48575;DHT22;34352;51.084;3.712;2024-01-30T11:49:59;10.70;16.90
48575;DHT22;34352;51.084;3.712;2024-01-30T11:52:29;10.60;20.50
48575;DHT22;34352;51.084;3.712;2024-01-30T11:54:54;10.60;20.10
48575;DHT22;34352;51.084;3.712;2024-01-30T11:57:22;10.50;23.90
48575;DHT22;34352;51.084;3.712;2024-01-30T12:02:57;10.50;23.40
48575;DHT22;34352;51.084;3.712;2024-01-30T12:05:46;10.50;25.50
48575;DHT22;34352;51.084;3.712;2024-01-30T12:11:20;10.50;28.20
48575;DHT22;34352;51.084;3.712;2024-01-30T12:14:10;10.50;19.20
48575;DHT22;34352;51.084;3.712;2024-01-30T12:16:52;10.30;17.60
48575;DHT22;34352;51.084;3.712;2024-01-30T12:19:35;10.10;22.80
48575;DHT22;34352;51.084;3.712;2024-01-30T12:22:25;10.10;27.70
48575;DHT22;34352;51.084;3.712;2024-01-30T12:28:48;9.90;23.20
48575;DHT22;34352;51.084;3.712;2024-01-30T12:34:56;9.60;16.70
48575;DHT22;34352;51.084;3.712;2024-01-30T12:37:41;9.60;15.20
48575;DHT22;34352;51.084;3.712;2024-01-30T12:40:40;9.60;16.70
48575;DHT22;34352;51.084;3.712;2024-01-30T12:46:34;9.70;11.30
48575;DHT22;34352;51.084;3.712;2024-01-30T12:49:00;9.60;12.20
48575;DHT22;34352;51.084;3.712;2024-01-30T12:51:38;9.70;11.30
48575;DHT22;34352;51.084;3.712;2024-01-30T12:54:12;9.60;10.70
48575;DHT22;34352;51.084;3.712;2024-01-30T13:00:11;9.50;15.00
48575;DHT22;34352;51.084;3.712;2024-01-30T13:02:58;9.60;15.90
48575;DHT22;34352;51.084;3.712;2024-01-30T13:05:41;9.70;13.30
48575;DHT22;34352;51.084;3.712;2024-01-30T13:08:14;9.70;12.50
48575;DHT22;34352;51.084;3.712;2024-01-30T13:10:52;9.70;14.00
48575;DHT22;34352;51.084;3.712;2024-01-30T13:13:19;9.70;15.20
48575;DHT22;34352;51.084;3.712;2024-01-30T13:19:14;9.70;18.10
48575;DHT22;34352;51.084;3.712;2024-01-30T13:21:39;9.70;18.60
48575;DHT22;34352;51.084;3.712;2024-01-30T13:24:06;9.80;17.60
48575;DHT22;34352;51.084;3.712;2024-01-30T13:26:32;9.70;18.30
48575;DHT22;34352;51.084;3.712;2024-01-30T13:28:59;9.80;16.20
48575;DHT22;34352;51.084;3.712;2024-01-30T13:31:26;9.80;16.90
48575;DHT22;34352;51.084;3.712;2024-01-30T13:33:56;9.70;18.10
48575;DHT22;34352;51.084;3.712;2024-01-30T13:36:25;9.60;21.90
48575;DHT22;34352;51.084;3.712;2024-01-30T13:38:59;9.60;22.60
48575;DHT22;34352;51.084;3.712;2024-01-30T13:41:34;9.60;22.60
48575;DHT22;34352;51.084;3.712;2024-01-30T13:44:10;9.60;23.10
48575;DHT22;34352;51.084;3.712;2024-01-30T13:46:37;9.70;19.60
48575;DHT22;34352;51.084;3.712;2024-01-30T13:49:04;9.70;16.50
48575;DHT22;34352;51.084;3.712;2024-01-30T13:54:47;9.60;21.10
48575;DHT22;34352;51.084;3.712;2024-01-30T14:00:35;9.50;29.00
48575;DHT22;34352;51.084;3.712;2024-01-30T14:03:03;9.50;29.70
48575;DHT22;34352;51.084;3.712;2024-01-30T14:05:29;9.60;31.50
48575;DHT22;34352;51.084;3.712;2024-01-30T14:07:56;9.60;30.50
48575;DHT22;34352;51.084;3.712;2024-01-30T14:10:25;9.60;28.70
48575;DHT22;34352;51.084;3.712;2024-01-30T14:12:55;9.50;30.10
48575;DHT22;34352;51.084;3.712;2024-01-30T14:15:28;9.60;32.30
48575;DHT22;34352;51.084;3.712;2024-01-30T14:17:56;9.60;30.70
48575;DHT22;34352;51.084;3.712;2024-01-30T14:20:25;9.70;29.10
48575;DHT22;34352;51.084;3.712;2024-01-30T14:23:17;9.80;25.00
48575;DHT22;34352;51.084;3.712;2024-01-30T14:25:47;9.60;29.40
48575;DHT22;34352;51.084;3.712;2024-01-30T14:28:13;9.50;31.40
48575;DHT22;34352;51.084;3.712;2024-01-30T14:30:50;9.40;31.20
48575;DHT22;34352;51.084;3.712;2024-01-30T14:33:24;9.50;34.40
48575;DHT22;34352;51.084;3.712;2024-01-30T14:35:51;9.40;30.70
48575;DHT22;34352;51.084;3.712;2024-01-30T14:38:24;9.30;35.80
48575;DHT22;34352;51.084;3.712;2024-01-30T14:40:56;9.30;35.90
48575;DHT22;34352;51.084;3.712;2024-01-30T14:43:24;9.40;37.30
48575;DHT22;34352;51.084;3.712;2024-01-30T14:45:50;9.40;36.40
48575;DHT22;34352;51.084;3.712;2024-01-30T14:48:47;9.40;35.10
48575;DHT22;34352;51.084;3.712;2024-01-30T14:51:14;9.40;34.10
48575;DHT22;34352;51.084;3.712;2024-01-30T14:53:53;9.30;37.30
48575;DHT22;34352;51.084;3.712;2024-01-30T14:56:26;9.20;39.40
48575;DHT22;34352;51.084;3.712;2024-01-30T14:58:53;9.20;41.90
48575;DHT22;34352;51.084;3.712;2024-01-30T15:01:21;9.30;39.40
48575;DHT22;34352;51.084;3.712;2024-01-30T15:03:49;9.20;44.40
48575;DHT22;34352;51.084;3.712;2024-01-30T15:10:04;9.10;54.90
48575;DHT22;34352;51.084;3.712;2024-01-30T15:12:48;9.00;60.10
48575;DHT22;34352;51.084;3.712;2024-01-30T15:18:41;8.90;69.10
48575;DHT22;34352;51.084;3.712;2024-01-30T15:24:25;8.70;74.00
48575;DHT22;34352;51.084;3.712;2024-01-30T15:27:20;8.90;73.00
48575;DHT22;34352;51.084;3.712;2024-01-30T15:29:48;8.90;69.10
48575;DHT22;34352;51.084;3.712;2024-01-30T15:32:19;8.90;69.10
48575;DHT22;34352;51.084;3.712;2024-01-30T15:35:02;8.90;71.20
48575;DHT22;34352;51.084;3.712;2024-01-30T15:38:02;8.90;73.10
48575;DHT22;34352;51.084;3.712;2024-01-30T15:40:30;8.90;73.30
48575;DHT22;34352;51.084;3.712;2024-01-30T15:43:06;8.90;69.50
48575;DHT22;34352;51.084;3.712;2024-01-30T15:45:32;9.00;69.80
48575;DHT22;34352;51.084;3.712;2024-01-30T15:48:17;8.90;68.10
48575;DHT22;34352;51.084;3.712;2024-01-30T15:50:43;8.80;72.90
48575;DHT22;34352;51.084;3.712;2024-01-30T15:53:09;8.80;72.60
48575;DHT22;34352;51.084;3.712;2024-01-30T15:55:37;8.70;73.60
48575;DHT22;34352;51.084;3.712;2024-01-30T15:58:07;8.70;76.30
48575;DHT22;34352;51.084;3.712;2024-01-30T16:00:53;8.80;73.90
48575;DHT22;34352;51.084;3.712;2024-01-30T16:03:23;8.70;76.50
48575;DHT22;34352;51.084;3.712;2024-01-30T16:05:50;8.60;79.30
48575;DHT22;34352;51.084;3.712;2024-01-30T16:11:58;8.50;80.90
48575;DHT22;34352;51.084;3.712;2024-01-30T16:20:33;8.70;82.90
48575;DHT22;34352;51.084;3.712;2024-01-30T16:26:21;8.60;84.60
48575;DHT22;34352;51.084;3.712;2024-01-30T16:28:51;8.50;87.40
48575;DHT22;34352;51.084;3.712;2024-01-30T16:31:40;8.50;87.70
48575;DHT22;34352;51.084;3.712;2024-01-30T16:38:01;8.30;89.00
48575;DHT22;34352;51.084;3.712;2024-01-30T16:40:42;8.30;90.80
48575;DHT22;34352;51.084;3.712;2024-01-30T16:43:11;8.30;90.90
48575;DHT22;34352;51.084;3.712;2024-01-30T16:48:58;8.30;91.30
48575;DHT22;34352;51.084;3.712;2024-01-30T16:51:24;8.20;90.60
48575;DHT22;34352;51.084;3.712;2024-01-30T16:54:18;8.30;91.50
48575;DHT22;34352;51.084;3.712;2024-01-30T16:56:51;8.30;89.80
48575;DHT22;34352;51.084;3.712;2024-01-30T16:59:25;8.20;90.50
48575;DHT22;34352;51.084;3.712;2024-01-30T17:01:53;8.30;89.40
48575;DHT22;34352;51.084;3.712;2024-01-30T17:11:04;8.10;90.20
48575;DHT22;34352;51.084;3.712;2024-01-30T17:16:47;8.10;91.50
48575;DHT22;34352;51.084;3.712;2024-01-30T17:26:10;7.90;92.40
48575;DHT22;34352;51.084;3.712;2024-01-30T17:32:06;8.00;92.60
48575;DHT22;34352;51.084;3.712;2024-01-30T17:34:39;8.10;91.90
48575;DHT22;34352;51.084;3.712;2024-01-30T17:40:51;8.10;92.10
48575;DHT22;34352;51.084;3.712;2024-01-30T17:43:20;8.00;92.80
48575;DHT22;34352;51.084;3.712;2024-01-30T17:45:46;8.00;93.20
48575;DHT22;34352;51.084;3.712;2024-01-30T17:48:19;8.00;93.90
48575;DHT22;34352;51.084;3.712;2024-01-30T17:50:53;8.00;93.60
48575;DHT22;34352;51.084;3.712;2024-01-30T17:53:24;8.00;93.10
48575;DHT22;34352;51.084;3.712;2024-01-30T17:55:59;8.00;93.40
48575;DHT22;34352;51.084;3.712;2024-01-30T17:58:40;8.10;93.50
48575;DHT22;34352;51.084;3.712;2024-01-30T18:01:18;8.10;93.00
48575;DHT22;34352;51.084;3.712;2024-01-30T18:03:58;8.10;93.70
48575;DHT22;34352;51.084;3.712;2024-01-30T18:06:29;8.10;92.10
48575;DHT22;34352;51.084;3.712;2024-01-30T18:08:57;8.00;92.80
48575;DHT22;34352;51.084;3.712;2024-01-30T18:11:48;8.10;93.50
48575;DHT22;34352;51.084;3.712;2024-01-30T18:14:14;8.10;93.60
48575;DHT22;34352;51.084;3.712;2024-01-30T18:16:54;8.10;93.20
48575;DHT22;34352;51.084;3.712;2024-01-30T18:19:23;8.70;92.70
48575;DHT22;34352;51.084;3.712;2024-01-30T18:21:49;8.30;91.40
48575;DHT22;34352;51.084;3.712;2024-01-30T18:24:22;8.20;90.60